Time;durP1;ratioP1;P1;durP2;ratioP2;P2;SDS_P1;SDS_P2;PMS_P1;PMS_P2;Temp;Humidity;BMP_temperature;BMP_pressure;BME280_temperature;BME280_humidity;BME280_pressure;Samples;Min_cycle;Max_cycle;Signal;HPM_P1;HPM_P2
2022/06/04 00:00:14;;;;;;;5.00;4.50;;;;;;;;;;4972711;28;20559;-55
2022/06/04 00:02:41;;;;;;;5.37;4.87;;;;;;;;;;4973075;28;20400;-55
2022/06/04 00:05:08;;;;;;;5.07;4.73;;;;;;;;;;4973036;28;20389;-56
2022/06/04 00:07:35;;;;;;;5.13;4.23;;;;;;;;;;4973465;28;20408;-56
2022/06/04 00:15:30;;;;;;;4.60;4.20;;;;;;;;;;4972967;28;20430;-55
2022/06/04 00:17:56;;;;;;;4.70;4.03;;;;;;;;;;4973045;28;20382;-55
2022/06/04 00:20:23;;;;;;;4.73;4.33;;;;;;;;;;4972714;28;20477;-55
2022/06/04 00:22:49;;;;;;;4.50;4.10;;;;;;;;;;4972852;28;20412;-55
2022/06/04 00:25:16;;;;;;;6.73;4.40;;;;;;;;;;4972762;28;20383;-56
2022/06/04 00:27:42;;;;;;;7.93;4.27;;;;;;;;;;4973112;28;20441;-55
2022/06/04 00:30:08;;;;;;;6.20;4.30;;;;;;;;;;4972450;28;20507;-55
2022/06/04 00:32:34;;;;;;;5.87;4.40;;;;;;;;;;4972864;28;20400;-55
2022/06/04 00:35:07;;;;;;;5.77;4.50;;;;;;;;;;4972768;28;20514;-55
2022/06/04 00:37:34;;;;;;;4.53;4.07;;;;;;;;;;4972711;28;20398;-54
2022/06/04 00:40:00;;;;;;;4.27;3.97;;;;;;;;;;4972408;28;20769;-55
2022/06/04 00:42:26;;;;;;;5.40;3.90;;;;;;;;;;4973213;28;20541;-55
2022/06/04 00:45:11;;;;;;;6.33;4.10;;;;;;;;;;4972724;28;20467;-56
2022/06/04 00:47:37;;;;;;;5.40;4.90;;;;;;;;;;4972774;28;20495;-55
2022/06/04 00:50:05;;;;;;;4.77;4.37;;;;;;;;;;4972271;28;20565;-55
2022/06/04 00:52:32;;;;;;;4.53;4.03;;;;;;;;;;4972702;28;20383;-55
2022/06/04 00:54:58;;;;;;;4.23;3.93;;;;;;;;;;4972581;28;20448;-54
2022/06/04 00:57:43;;;;;;;6.47;4.37;;;;;;;;;;4975308;28;20860;-56
2022/06/04 01:00:20;;;;;;;5.97;3.93;;;;;;;;;;4976055;28;20734;-55
2022/06/04 01:02:52;;;;;;;4.50;4.10;;;;;;;;;;4975493;28;20387;-55
2022/06/04 01:05:24;;;;;;;4.87;4.30;;;;;;;;;;4975552;28;20401;-55
2022/06/04 01:07:53;;;;;;;5.23;4.73;;;;;;;;;;4975278;28;20390;-55
2022/06/04 01:10:26;;;;;;;4.50;4.10;;;;;;;;;;4975889;28;20749;-55
2022/06/04 01:12:57;;;;;;;4.73;3.90;;;;;;;;;;4976091;28;20408;-55
2022/06/04 01:15:26;;;;;;;7.50;3.97;;;;;;;;;;4975905;28;20483;-55
2022/06/04 01:17:55;;;;;;;7.63;4.20;;;;;;;;;;4976092;28;20751;-54
2022/06/04 01:20:21;;;;;;;4.90;4.23;;;;;;;;;;4975569;28;20392;-55
2022/06/04 01:22:47;;;;;;;7.40;4.80;;;;;;;;;;4958492;28;20402;-56
2022/06/04 01:25:33;;;;;;;4.30;3.60;;;;;;;;;;4975823;28;20423;-55
2022/06/04 01:28:02;;;;;;;8.87;4.70;;;;;;;;;;4975817;28;20483;-55
2022/06/04 01:30:43;;;;;;;4.73;4.33;;;;;;;;;;4975340;28;21042;-54
2022/06/04 01:33:12;;;;;;;5.50;4.43;;;;;;;;;;4975748;28;20478;-55
2022/06/04 01:35:46;;;;;;;4.33;3.93;;;;;;;;;;4975540;28;20514;-55
2022/06/04 01:38:22;;;;;;;4.87;4.47;;;;;;;;;;4975537;28;20734;-56
2022/06/04 01:41:07;;;;;;;3.97;3.67;;;;;;;;;;4975354;28;20964;-55
2022/06/04 01:43:40;;;;;;;5.13;4.73;;;;;;;;;;4975586;28;20899;-54
2022/06/04 01:46:10;;;;;;;8.23;5.07;;;;;;;;;;4975357;28;20941;-55
2022/06/04 01:48:38;;;;;;;4.87;4.37;;;;;;;;;;4974989;28;20390;-55
2022/06/04 01:51:05;;;;;;;5.23;4.73;;;;;;;;;;4975378;28;20408;-55
2022/06/04 01:53:34;;;;;;;3.97;3.67;;;;;;;;;;4975303;28;20379;-55
2022/06/04 01:56:03;;;;;;;4.53;4.23;;;;;;;;;;4975220;28;20461;-55
2022/06/04 01:58:33;;;;;;;4.57;4.10;;;;;;;;;;4974890;28;20390;-55
2022/06/04 02:01:04;;;;;;;4.70;4.30;;;;;;;;;;4975009;28;20458;-55
2022/06/04 02:03:36;;;;;;;5.17;4.67;;;;;;;;;;4975159;28;20411;-56
2022/06/04 02:06:11;;;;;;;4.90;4.50;;;;;;;;;;4975049;28;20401;-55
2022/06/04 02:08:46;;;;;;;5.83;4.27;;;;;;;;;;4974290;28;20405;-55
2022/06/04 02:11:17;;;;;;;4.90;3.90;;;;;;;;;;4975029;28;20419;-55
2022/06/04 02:13:44;;;;;;;5.43;4.93;;;;;;;;;;4974849;28;20447;-55
2022/06/04 02:16:13;;;;;;;9.23;5.23;;;;;;;;;;4974861;28;20465;-54
2022/06/04 02:18:39;;;;;;;6.47;5.03;;;;;;;;;;4974742;28;20379;-55
2022/06/04 02:21:05;;;;;;;11.10;5.80;;;;;;;;;;4974848;28;20903;-55
2022/06/04 02:23:33;;;;;;;7.47;5.23;;;;;;;;;;4974710;28;20804;-54
2022/06/04 02:26:00;;;;;;;5.40;4.80;;;;;;;;;;4974662;28;20426;-55
2022/06/04 02:28:26;;;;;;;5.43;4.90;;;;;;;;;;4974302;28;20411;-54
2022/06/04 02:31:06;;;;;;;6.90;4.53;;;;;;;;;;4974603;28;20448;-54
2022/06/04 02:33:41;;;;;;;7.27;4.90;;;;;;;;;;4974637;28;20495;-56
2022/06/04 02:36:11;;;;;;;6.83;4.80;;;;;;;;;;4974526;28;20460;-55
2022/06/04 02:38:41;;;;;;;5.90;4.93;;;;;;;;;;4974069;28;20379;-55
2022/06/04 02:41:10;;;;;;;5.90;4.87;;;;;;;;;;4974546;28;20876;-54
2022/06/04 02:43:44;;;;;;;5.97;5.40;;;;;;;;;;4974259;28;20413;-55
2022/06/04 02:46:27;;;;;;;4.97;4.50;;;;;;;;;;4974383;28;20405;-55
2022/06/04 02:48:58;;;;;;;7.37;5.33;;;;;;;;;;4973885;28;20835;-55
2022/06/04 02:51:26;;;;;;;8.33;5.53;;;;;;;;;;4974397;28;20381;-54
2022/06/04 02:53:52;;;;;;;7.40;4.83;;;;;;;;;;4974401;28;20391;-55
2022/06/04 02:56:21;;;;;;;6.07;5.47;;;;;;;;;;4974275;28;20557;-54
2022/06/04 02:58:48;;;;;;;6.07;5.47;;;;;;;;;;4973656;28;20480;-55
2022/06/04 03:01:15;;;;;;;5.93;5.27;;;;;;;;;;4974114;28;20396;-55
2022/06/04 03:03:41;;;;;;;6.33;5.43;;;;;;;;;;4973926;28;20474;-54
2022/06/04 03:06:09;;;;;;;9.27;5.87;;;;;;;;;;4973984;28;20470;-55
2022/06/04 03:08:38;;;;;;;7.07;5.60;;;;;;;;;;4973767;28;20414;-55
2022/06/04 03:11:04;;;;;;;5.87;5.27;;;;;;;;;;4973952;28;20772;-56
2022/06/04 03:13:30;;;;;;;6.17;5.57;;;;;;;;;;4973711;28;20808;-55
2022/06/04 03:15:56;;;;;;;7.43;5.90;;;;;;;;;;4973614;28;20473;-54
2022/06/04 03:18:22;;;;;;;7.83;5.50;;;;;;;;;;4973204;28;20387;-54
2022/06/04 03:20:48;;;;;;;5.70;5.30;;;;;;;;;;4973205;28;20403;-54
2022/06/04 03:23:14;;;;;;;6.47;5.40;;;;;;;;;;4973706;28;20792;-55
2022/06/04 03:25:40;;;;;;;6.30;4.93;;;;;;;;;;4973622;28;20437;-55
2022/06/04 03:28:07;;;;;;;5.53;5.03;;;;;;;;;;4973591;28;20774;-53
2022/06/04 03:30:34;;;;;;;6.60;5.60;;;;;;;;;;4973115;28;20979;-54
2022/06/04 03:33:00;;;;;;;6.17;5.67;;;;;;;;;;4973568;28;20435;-55
2022/06/04 03:35:26;;;;;;;5.37;4.87;;;;;;;;;;4973443;28;20668;-54
2022/06/04 03:37:52;;;;;;;5.50;5.00;;;;;;;;;;4973509;28;20424;-55
2022/06/04 03:40:19;;;;;;;8.10;5.90;;;;;;;;;;4973197;28;20512;-55
2022/06/04 03:42:45;;;;;;;5.50;5.00;;;;;;;;;;4973274;28;20447;-55
2022/06/04 03:45:12;;;;;;;5.20;4.80;;;;;;;;;;4973344;28;20419;-55
2022/06/04 03:47:38;;;;;;;6.00;5.40;;;;;;;;;;4973275;28;20397;-55
2022/06/04 03:50:08;;;;;;;5.90;5.27;;;;;;;;;;4972907;28;20424;-55
2022/06/04 03:52:34;;;;;;;6.07;5.47;;;;;;;;;;4973386;28;20741;-55
2022/06/04 03:55:01;;;;;;;6.23;5.17;;;;;;;;;;4973562;28;20375;-55
2022/06/04 03:57:50;;;;;;;7.77;5.70;;;;;;;;;;4973202;28;20380;-55
2022/06/04 04:00:19;;;;;;;7.00;5.30;;;;;;;;;;4972907;28;20429;-55
2022/06/04 04:03:02;;;;;;;5.60;5.10;;;;;;;;;;4973167;28;20537;-55
2022/06/04 04:05:38;;;;;;;7.10;6.07;;;;;;;;;;4973136;28;20801;-54
2022/06/04 04:08:06;;;;;;;5.63;5.03;;;;;;;;;;4973490;28;20379;-54
2022/06/04 04:10:32;;;;;;;6.83;5.57;;;;;;;;;;4972698;28;20845;-55
2022/06/04 04:12:59;;;;;;;6.50;5.70;;;;;;;;;;4972962;28;20389;-55
2022/06/04 04:15:25;;;;;;;5.90;5.30;;;;;;;;;;4972970;28;20426;-54
2022/06/04 04:17:51;;;;;;;8.53;6.00;;;;;;;;;;4972956;28;20931;-55
2022/06/04 04:20:22;;;;;;;6.63;5.37;;;;;;;;;;4972634;28;20428;-54
2022/06/04 04:22:49;;;;;;;6.77;6.17;;;;;;;;;;4972981;28;20453;-55
2022/06/04 04:25:16;;;;;;;5.60;5.20;;;;;;;;;;4972830;28;20466;-54
2022/06/04 04:27:42;;;;;;;6.70;5.83;;;;;;;;;;4972917;28;20668;-55
2022/06/04 04:30:09;;;;;;;7.43;6.10;;;;;;;;;;4973465;28;20475;-55
2022/06/04 04:32:35;;;;;;;9.57;6.43;;;;;;;;;;4976856;28;20511;-53
2022/06/04 04:35:01;;;;;;;6.40;5.80;;;;;;;;;;4976731;28;20474;-54
2022/06/04 04:37:27;;;;;;;6.77;6.20;;;;;;;;;;4976726;28;20411;-55
2022/06/04 04:39:54;;;;;;;10.93;6.17;;;;;;;;;;4976349;28;20428;-54
2022/06/04 04:42:20;;;;;;;6.10;5.60;;;;;;;;;;4976560;28;20469;-55
2022/06/04 04:44:46;;;;;;;7.00;5.17;;;;;;;;;;4976672;28;20414;-55
2022/06/04 04:47:12;;;;;;;6.67;5.53;;;;;;;;;;4976609;28;20388;-55
2022/06/04 04:49:38;;;;;;;6.00;5.50;;;;;;;;;;4976031;28;20488;-54
2022/06/04 04:52:04;;;;;;;6.13;5.03;;;;;;;;;;4976408;28;20462;-54
2022/06/04 04:54:30;;;;;;;8.97;5.10;;;;;;;;;;4976332;28;20905;-54
2022/06/04 04:56:56;;;;;;;6.80;6.17;;;;;;;;;;4976296;28;20518;-55
2022/06/04 04:59:22;;;;;;;7.93;6.20;;;;;;;;;;4975945;28;20416;-55
2022/06/04 05:01:48;;;;;;;6.73;5.93;;;;;;;;;;4976245;28;20908;-55
2022/06/04 05:04:14;;;;;;;11.50;7.07;;;;;;;;;;4976133;28;20479;-55
2022/06/04 05:06:40;;;;;;;7.80;6.40;;;;;;;;;;4976121;28;20612;-55
2022/06/04 05:09:08;;;;;;;6.83;5.60;;;;;;;;;;4975712;28;20464;-54
2022/06/04 05:11:34;;;;;;;6.90;6.33;;;;;;;;;;4976169;28;20459;-55
2022/06/04 05:14:01;;;;;;;7.77;6.10;;;;;;;;;;4976047;28;20817;-54
2022/06/04 05:16:28;;;;;;;7.63;5.80;;;;;;;;;;4975934;28;20534;-54
2022/06/04 05:18:54;;;;;;;9.60;6.40;;;;;;;;;;4975527;28;20405;-54
2022/06/04 05:21:20;;;;;;;6.80;6.13;;;;;;;;;;4975884;28;20409;-56
2022/06/04 05:23:46;;;;;;;6.03;5.53;;;;;;;;;;4976002;28;20451;-55
2022/06/04 05:26:12;;;;;;;7.93;5.73;;;;;;;;;;4975880;28;20408;-56
2022/06/04 05:28:38;;;;;;;7.23;6.50;;;;;;;;;;4975694;28;20464;-54
2022/06/04 05:31:04;;;;;;;8.10;6.07;;;;;;;;;;4975533;28;20429;-54
2022/06/04 05:33:30;;;;;;;8.10;7.30;;;;;;;;;;4975695;28;20397;-55
2022/06/04 05:35:56;;;;;;;7.13;6.03;;;;;;;;;;4975621;28;20876;-55
2022/06/04 05:38:22;;;;;;;7.70;7.10;;;;;;;;;;4975525;28;20492;-55
2022/06/04 05:40:48;;;;;;;7.70;6.80;;;;;;;;;;4975280;28;20425;-55
2022/06/04 05:43:14;;;;;;;7.40;6.70;;;;;;;;;;4974708;28;20943;-55
2022/06/04 05:45:40;;;;;;;6.90;6.20;;;;;;;;;;4975615;28;20412;-55
2022/06/04 05:48:06;;;;;;;9.23;6.40;;;;;;;;;;4975869;28;20939;-55
2022/06/04 05:50:32;;;;;;;7.10;6.50;;;;;;;;;;4975100;28;20511;-55
2022/06/04 05:52:58;;;;;;;7.03;6.37;;;;;;;;;;4975347;28;20496;-54
2022/06/04 05:55:25;;;;;;;7.30;5.60;;;;;;;;;;4975297;28;20873;-55
2022/06/04 05:57:50;;;;;;;9.20;6.10;;;;;;;;;;4975257;28;20458;-55
2022/06/04 06:00:16;;;;;;;7.33;5.97;;;;;;;;;;4974930;28;20516;-55
2022/06/04 06:02:42;;;;;;;8.50;6.80;;;;;;;;;;4975035;28;20384;-55
2022/06/04 06:05:09;;;;;;;7.10;6.40;;;;;;;;;;4975210;28;20968;-55
2022/06/04 06:07:34;;;;;;;6.30;5.80;;;;;;;;;;4975006;28;20384;-54
2022/06/04 06:10:00;;;;;;;7.50;5.47;;;;;;;;;;4974794;28;20511;-55
2022/06/04 06:12:26;;;;;;;6.77;6.23;;;;;;;;;;4975031;28;20408;-55
2022/06/04 06:14:52;;;;;;;8.47;6.73;;;;;;;;;;4974907;28;20955;-55
2022/06/04 06:17:18;;;;;;;7.43;5.90;;;;;;;;;;4974935;28;20745;-54
2022/06/04 06:19:44;;;;;;;6.17;5.57;;;;;;;;;;4974513;28;20424;-54
2022/06/04 06:22:10;;;;;;;7.83;6.23;;;;;;;;;;4974763;28;20405;-55
2022/06/04 06:24:36;;;;;;;7.13;6.23;;;;;;;;;;4974780;28;20520;-54
2022/06/04 06:27:02;;;;;;;6.80;6.20;;;;;;;;;;4974747;28;20414;-56
2022/06/04 06:29:30;;;;;;;9.00;5.97;;;;;;;;;;4974445;28;20945;-54
2022/06/04 06:31:57;;;;;;;6.43;5.83;;;;;;;;;;4974514;28;20409;-55
2022/06/04 06:34:23;;;;;;;6.23;5.73;;;;;;;;;;4974623;28;20412;-55
2022/06/04 06:36:49;;;;;;;6.73;6.00;;;;;;;;;;4973737;28;20439;-55
2022/06/04 06:39:15;;;;;;;8.13;7.27;;;;;;;;;;4973873;28;20422;-56
2022/06/04 06:41:41;;;;;;;5.10;4.70;;;;;;;;;;4974227;28;20568;-55
2022/06/04 06:44:07;;;;;;;7.00;5.10;;;;;;;;;;4969480;28;20474;-55
2022/06/04 06:46:38;;;;;;;6.17;5.60;;;;;;;;;;4954791;28;20420;-54
2022/06/04 06:49:04;;;;;;;9.07;6.47;;;;;;;;;;4954757;29;20474;-55
2022/06/04 06:51:32;;;;;;;6.67;5.97;;;;;;;;;;4954866;29;20409;-55
2022/06/04 06:53:58;;;;;;;5.90;5.40;;;;;;;;;;4954815;28;20417;-55
2022/06/04 06:56:25;;;;;;;7.50;6.47;;;;;;;;;;4954756;28;20456;-55
2022/06/04 06:58:52;;;;;;;7.93;6.83;;;;;;;;;;4954413;29;20425;-55
2022/06/04 07:01:18;;;;;;;8.40;5.80;;;;;;;;;;4954752;29;20803;-55
2022/06/04 07:03:44;;;;;;;7.03;5.73;;;;;;;;;;4954711;29;20434;-55
2022/06/04 07:06:12;;;;;;;5.47;5.07;;;;;;;;;;4954637;29;20384;-55
2022/06/04 07:08:39;;;;;;;5.80;5.30;;;;;;;;;;4954533;29;20473;-56
2022/06/04 07:11:05;;;;;;;7.80;6.70;;;;;;;;;;4954438;29;20417;-55
2022/06/04 07:13:31;;;;;;;6.60;6.00;;;;;;;;;;4954422;29;20430;-55
2022/06/04 07:15:58;;;;;;;6.97;6.33;;;;;;;;;;4954399;29;20484;-54
2022/06/04 07:18:24;;;;;;;5.57;5.03;;;;;;;;;;4954303;29;20483;-55
2022/06/04 07:20:51;;;;;;;13.10;6.13;;;;;;;;;;4972003;28;20523;-55
2022/06/04 07:23:18;;;;;;;5.90;5.10;;;;;;;;;;4973371;28;20852;-55
2022/06/04 07:25:45;;;;;;;4.93;4.53;;;;;;;;;;4973242;28;20584;-55
2022/06/04 07:28:12;;;;;;;7.63;5.70;;;;;;;;;;4972823;28;20877;-55
2022/06/04 07:30:38;;;;;;;5.90;5.40;;;;;;;;;;4970807;28;20452;-55
2022/06/04 07:33:04;;;;;;;6.97;5.63;;;;;;;;;;4973026;28;20497;-55
2022/06/04 07:35:30;;;;;;;6.23;5.63;;;;;;;;;;4973472;28;20968;-56
2022/06/04 07:37:56;;;;;;;6.13;5.53;;;;;;;;;;4973060;28;20424;-56
2022/06/04 07:40:22;;;;;;;6.10;5.50;;;;;;;;;;4972948;28;20944;-54
2022/06/04 07:42:48;;;;;;;7.60;6.27;;;;;;;;;;4971879;28;20773;-56
2022/06/04 07:45:15;;;;;;;9.00;6.13;;;;;;;;;;4973189;28;20417;-55
2022/06/04 07:47:41;;;;;;;5.37;4.87;;;;;;;;;;4972816;28;20764;-55
2022/06/04 07:50:08;;;;;;;6.03;5.43;;;;;;;;;;4972802;28;20824;-55
2022/06/04 07:52:34;;;;;;;5.87;5.33;;;;;;;;;;4972947;28;20428;-55
2022/06/04 07:55:00;;;;;;;5.93;5.50;;;;;;;;;;4973081;28;20494;-56
2022/06/04 07:57:27;;;;;;;7.10;5.17;;;;;;;;;;4972796;28;20419;-55
2022/06/04 07:59:53;;;;;;;6.60;5.23;;;;;;;;;;4972553;28;20477;-56
2022/06/04 08:02:21;;;;;;;6.40;5.67;;;;;;;;;;4972917;28;20914;-55
2022/06/04 08:04:48;;;;;;;5.10;4.70;;;;;;;;;;4972599;28;20421;-55
2022/06/04 08:07:15;;;;;;;6.03;5.53;;;;;;;;;;4972554;28;20515;-55
2022/06/04 08:09:41;;;;;;;6.20;5.67;;;;;;;;;;4972290;28;20447;-55
2022/06/04 08:12:07;;;;;;;5.40;5.00;;;;;;;;;;4972292;28;20787;-55
2022/06/04 08:14:33;;;;;;;5.17;4.77;;;;;;;;;;4979525;28;20516;-55
2022/06/04 08:17:00;;;;;;;6.20;5.57;;;;;;;;;;4972268;28;20557;-55
2022/06/04 08:19:27;;;;;;;5.67;5.17;;;;;;;;;;4952903;29;20427;-55
2022/06/04 08:21:53;;;;;;;10.93;5.37;;;;;;;;;;4960088;28;20407;-56
2022/06/04 08:24:20;;;;;;;6.90;5.90;;;;;;;;;;4972547;28;20462;-55
2022/06/04 08:26:48;;;;;;;6.47;5.80;;;;;;;;;;4972592;28;20412;-54
2022/06/04 08:29:14;;;;;;;8.67;5.13;;;;;;;;;;4971833;28;20459;-55
2022/06/04 08:31:41;;;;;;;8.33;5.90;;;;;;;;;;4971898;28;20802;-55
2022/06/04 08:34:07;;;;;;;5.73;5.23;;;;;;;;;;4972455;28;20412;-56
2022/06/04 08:36:34;;;;;;;6.13;5.63;;;;;;;;;;4955005;28;20470;-56
2022/06/04 08:39:01;;;;;;;5.93;5.43;;;;;;;;;;4971944;28;20444;-56
2022/06/04 08:41:38;;;;;;;6.77;5.70;;;;;;;;;;4972584;28;20433;-56
2022/06/04 08:44:15;;;;;;;8.40;5.63;;;;;;;;;;4972544;28;20404;-55
2022/06/04 08:47:00;;;;;;;5.37;4.87;;;;;;;;;;4972433;28;20407;-55
2022/06/04 08:49:33;;;;;;;5.93;5.30;;;;;;;;;;4972328;28;20424;-55
2022/06/04 08:52:03;;;;;;;8.53;5.10;;;;;;;;;;4969443;28;20953;-57
2022/06/04 08:57:32;;;;;;;5.53;5.00;;;;;;;;;;4973718;28;20552;-57
2022/06/04 09:00:17;;;;;;;6.63;5.43;;;;;;;;;;4973591;28;20916;-57
2022/06/04 09:02:55;;;;;;;4.90;4.60;;;;;;;;;;4973952;28;20412;-57
2022/06/04 09:05:25;;;;;;;5.30;4.70;;;;;;;;;;4973944;28;20441;-57
2022/06/04 09:07:54;;;;;;;4.30;3.90;;;;;;;;;;4974288;28;20416;-57
2022/06/04 09:10:34;;;;;;;5.07;4.60;;;;;;;;;;4973977;28;20435;-57
2022/06/04 09:13:05;;;;;;;4.20;3.90;;;;;;;;;;4974324;28;20413;-56
2022/06/04 09:15:37;;;;;;;4.63;4.23;;;;;;;;;;4973187;28;20547;-57
2022/06/04 09:18:07;;;;;;;4.30;4.00;;;;;;;;;;4974973;28;20889;-57
2022/06/04 09:20:50;;;;;;;3.47;3.17;;;;;;;;;;4977076;28;20420;-56
2022/06/04 09:23:16;;;;;;;6.03;4.73;;;;;;;;;;4975156;28;20411;-57
2022/06/04 09:25:47;;;;;;;4.73;4.33;;;;;;;;;;4976542;28;20851;-57
2022/06/04 09:28:26;;;;;;;5.67;5.23;;;;;;;;;;4976609;28;20455;-57
2022/06/04 09:30:58;;;;;;;4.17;3.87;;;;;;;;;;4976519;28;20460;-57
2022/06/04 09:33:43;;;;;;;5.23;4.87;;;;;;;;;;4977306;28;20409;-56
2022/06/04 09:36:16;;;;;;;5.03;4.57;;;;;;;;;;4977431;28;20464;-56
2022/06/04 09:38:51;;;;;;;5.00;4.60;;;;;;;;;;4974972;28;20512;-56
2022/06/04 09:41:20;;;;;;;5.50;5.10;;;;;;;;;;4975289;28;20835;-56
2022/06/04 09:43:46;;;;;;;5.87;5.37;;;;;;;;;;4979657;28;20467;-57
2022/06/04 09:46:13;;;;;;;4.43;4.13;;;;;;;;;;4979418;28;20459;-57
2022/06/04 09:48:43;;;;;;;5.10;4.70;;;;;;;;;;4979674;28;20783;-58
2022/06/04 09:51:16;;;;;;;5.40;5.00;;;;;;;;;;4978868;28;20405;-57
2022/06/04 09:53:44;;;;;;;6.13;5.63;;;;;;;;;;4978941;28;20450;-57
2022/06/04 09:56:26;;;;;;;5.83;5.33;;;;;;;;;;4978777;28;20967;-57
2022/06/04 09:58:52;;;;;;;5.83;4.93;;;;;;;;;;4977660;28;20420;-57
2022/06/04 10:01:18;;;;;;;5.47;5.00;;;;;;;;;;4977233;28;20901;-55
2022/06/04 10:03:45;;;;;;;4.90;4.50;;;;;;;;;;4976646;28;20419;-56
2022/06/04 10:06:13;;;;;;;5.33;4.93;;;;;;;;;;4985175;28;20431;-53
2022/06/04 10:11:32;;;;;;;6.00;5.30;;;;;;;;;;4975295;28;20411;-55
2022/06/04 10:13:58;;;;;;;5.30;4.83;;;;;;;;;;4976029;28;20424;-57
2022/06/04 10:16:24;;;;;;;5.90;4.50;;;;;;;;;;4975963;28;20562;-54
2022/06/04 10:18:57;;;;;;;6.20;5.17;;;;;;;;;;4957264;28;20424;-55
2022/06/04 10:21:25;;;;;;;6.53;5.90;;;;;;;;;;4973797;28;20409;-56
2022/06/04 10:23:52;;;;;;;6.93;5.50;;;;;;;;;;4972755;28;20420;-55
2022/06/04 10:26:27;;;;;;;5.33;4.83;;;;;;;;;;4972623;28;20487;-56
2022/06/04 10:29:02;;;;;;;5.60;5.20;;;;;;;;;;4972291;28;20407;-56
2022/06/04 10:31:49;;;;;;;5.37;4.93;;;;;;;;;;4973611;28;20487;-55
2022/06/04 10:34:18;;;;;;;7.07;5.50;;;;;;;;;;4974579;28;20419;-55
2022/06/04 10:36:50;;;;;;;6.80;5.07;;;;;;;;;;4974087;28;20973;-56
2022/06/04 10:39:25;;;;;;;8.10;6.27;;;;;;;;;;4974008;28;20460;-56
2022/06/04 10:41:51;;;;;;;6.47;5.63;;;;;;;;;;4973774;28;20465;-55
2022/06/04 10:44:20;;;;;;;6.33;5.77;;;;;;;;;;4974121;28;20425;-56
2022/06/04 10:46:52;;;;;;;7.20;5.57;;;;;;;;;;4979568;28;20424;-54
2022/06/04 10:49:24;;;;;;;5.00;4.67;;;;;;;;;;4973683;28;20519;-57
2022/06/04 10:52:09;;;;;;;5.50;5.00;;;;;;;;;;4962412;28;20448;-54
2022/06/04 10:54:39;;;;;;;6.20;5.50;;;;;;;;;;4980692;28;20425;-54
2022/06/04 10:57:20;;;;;;;5.27;4.87;;;;;;;;;;4963954;28;20969;-54
2022/06/04 10:59:54;;;;;;;6.60;6.00;;;;;;;;;;4936893;29;20521;-57
2022/06/04 11:02:38;;;;;;;4.93;4.50;;;;;;;;;;4948449;28;20416;-55
2022/06/04 11:05:06;;;;;;;4.13;3.80;;;;;;;;;;4969786;28;20420;-55
2022/06/04 11:07:52;;;;;;;4.83;4.40;;;;;;;;;;4973027;28;20436;-56
2022/06/04 11:10:19;;;;;;;4.83;4.43;;;;;;;;;;4973299;28;20432;-55
2022/06/04 11:12:54;;;;;;;5.40;5.00;;;;;;;;;;4973999;28;20409;-54
2022/06/04 11:15:34;;;;;;;6.57;5.17;;;;;;;;;;4966835;28;20464;-54
2022/06/04 11:18:20;;;;;;;6.03;5.53;;;;;;;;;;4969663;28;20408;-54
2022/06/04 11:20:49;;;;;;;5.83;5.33;;;;;;;;;;4973322;28;20420;-54
2022/06/04 11:23:24;;;;;;;8.03;5.53;;;;;;;;;;4973438;28;20912;-54
2022/06/04 11:25:52;;;;;;;5.37;4.87;;;;;;;;;;4973643;28;20914;-54
2022/06/04 11:28:24;;;;;;;5.20;4.70;;;;;;;;;;4973297;28;20500;-54
2022/06/04 11:31:07;;;;;;;5.03;4.60;;;;;;;;;;4972828;28;20440;-55
2022/06/04 11:33:51;;;;;;;5.00;4.63;;;;;;;;;;4973512;28;20445;-54
2022/06/04 11:36:36;;;;;;;4.50;4.20;;;;;;;;;;4973251;28;20975;-52
2022/06/04 11:39:10;;;;;;;4.80;4.47;;;;;;;;;;4972731;28;20437;-55
2022/06/04 11:41:36;;;;;;;4.50;4.20;;;;;;;;;;4972669;28;20508;-54
2022/06/04 11:44:20;;;;;;;5.93;4.97;;;;;;;;;;4973227;28;20499;-53
2022/06/04 11:47:04;;;;;;;4.70;4.40;;;;;;;;;;4973029;28;20425;-52
2022/06/04 11:49:42;;;;;;;4.80;4.50;;;;;;;;;;4972489;28;20459;-52
2022/06/04 11:52:16;;;;;;;4.00;3.60;;;;;;;;;;4969784;28;20979;-56
2022/06/04 11:54:54;;;;;;;5.63;4.00;;;;;;;;;;4972835;28;20527;-55
2022/06/04 11:57:26;;;;;;;4.90;4.10;;;;;;;;;;4972617;28;20456;-55
2022/06/04 11:59:52;;;;;;;4.10;3.67;;;;;;;;;;4972441;28;20920;-56
2022/06/04 12:02:21;;;;;;;3.97;3.77;;;;;;;;;;4969601;28;20436;-55
2022/06/04 12:05:05;;;;;;;4.57;4.17;;;;;;;;;;4973514;28;20417;-56
2022/06/04 12:07:37;;;;;;;4.90;3.90;;;;;;;;;;4972275;28;20413;-55
2022/06/04 12:10:15;;;;;;;3.50;3.20;;;;;;;;;;4972714;28;20427;-54
2022/06/04 12:12:48;;;;;;;4.30;3.87;;;;;;;;;;4972024;28;20416;-54
2022/06/04 12:15:25;;;;;;;4.07;3.77;;;;;;;;;;4972058;28;20452;-54
2022/06/04 12:17:53;;;;;;;3.73;3.43;;;;;;;;;;4972918;28;20413;-55
2022/06/04 12:26:23;;;;;;;4.23;3.73;;;;;;;;;;4972246;28;20440;-56
2022/06/04 12:28:49;;;;;;;3.63;3.43;;;;;;;;;;4972495;28;20405;-55
2022/06/04 12:31:27;;;;;;;6.43;3.60;;;;;;;;;;4972060;28;21008;-55
2022/06/04 12:33:54;;;;;;;4.20;3.90;;;;;;;;;;4972514;28;20409;-55
2022/06/04 12:36:28;;;;;;;3.70;3.40;;;;;;;;;;4971903;28;20461;-55
2022/06/04 12:39:02;;;;;;;3.67;3.40;;;;;;;;;;4971902;28;20515;-54
2022/06/04 12:41:37;;;;;;;3.93;3.63;;;;;;;;;;4972076;28;20916;-54
2022/06/04 12:44:04;;;;;;;3.87;3.60;;;;;;;;;;4970526;28;20483;-55
2022/06/04 12:46:33;;;;;;;3.50;3.20;;;;;;;;;;4973875;28;20428;-54
2022/06/04 12:49:17;;;;;;;3.60;3.30;;;;;;;;;;4973247;28;20421;-57
2022/06/04 12:51:49;;;;;;;4.10;3.17;;;;;;;;;;4973885;28;20419;-55
2022/06/04 12:54:30;;;;;;;3.57;3.30;;;;;;;;;;4975232;28;20933;-54
2022/06/04 12:56:58;;;;;;;3.07;2.87;;;;;;;;;;4983272;28;20455;-55
2022/06/04 12:59:27;;;;;;;3.17;2.90;;;;;;;;;;4975746;28;20440;-55
2022/06/04 13:01:53;;;;;;;3.10;2.90;;;;;;;;;;4975460;28;20409;-55
2022/06/04 13:04:21;;;;;;;3.17;2.97;;;;;;;;;;4975732;28;20471;-55
2022/06/04 13:06:49;;;;;;;2.97;2.73;;;;;;;;;;4976085;28;20429;-55
2022/06/04 13:09:23;;;;;;;2.67;2.43;;;;;;;;;;4976692;28;20908;-56
2022/06/04 13:11:55;;;;;;;2.67;2.50;;;;;;;;;;4977508;28;20990;-55
2022/06/04 13:14:33;;;;;;;2.83;2.60;;;;;;;;;;4975180;28;20421;-55
2022/06/04 13:17:11;;;;;;;4.00;3.70;;;;;;;;;;4975707;28;20456;-55
2022/06/04 13:19:49;;;;;;;3.63;3.33;;;;;;;;;;4968553;28;20805;-55
2022/06/04 13:22:28;;;;;;;6.13;5.63;;;;;;;;;;4975205;28;20416;-55
2022/06/04 13:24:55;;;;;;;4.60;3.97;;;;;;;;;;4974510;28;20423;-55
2022/06/04 13:27:28;;;;;;;2.87;2.77;;;;;;;;;;4975329;28;20417;-55
2022/06/04 13:29:56;;;;;;;4.13;3.10;;;;;;;;;;4974863;28;20532;-55
2022/06/04 13:32:22;;;;;;;2.90;2.70;;;;;;;;;;4975636;28;20401;-55
2022/06/04 13:34:49;;;;;;;2.80;2.60;;;;;;;;;;4974908;28;20453;-55
2022/06/04 13:37:18;;;;;;;2.20;2.10;;;;;;;;;;4975312;28;20545;-55
2022/06/04 13:39:46;;;;;;;3.97;2.40;;;;;;;;;;4974342;28;20451;-55
2022/06/04 13:42:14;;;;;;;2.40;2.30;;;;;;;;;;4974776;28;20436;-55
2022/06/04 13:44:42;;;;;;;2.70;2.50;;;;;;;;;;4974881;28;20424;-55
2022/06/04 13:47:19;;;;;;;2.47;2.30;;;;;;;;;;4974451;28;20421;-55
2022/06/04 13:50:04;;;;;;;3.50;2.77;;;;;;;;;;4974766;28;20527;-55
2022/06/04 13:52:30;;;;;;;2.40;2.27;;;;;;;;;;4974898;28;20420;-55
2022/06/04 13:54:58;;;;;;;3.70;2.30;;;;;;;;;;4974917;28;20416;-55
2022/06/04 13:57:24;;;;;;;2.60;2.40;;;;;;;;;;4974648;28;20212;-55
2022/06/04 13:59:50;;;;;;;2.73;2.60;;;;;;;;;;4974611;28;20824;-55
2022/06/04 14:02:18;;;;;;;2.47;2.27;;;;;;;;;;4974752;28;20642;-55
2022/06/04 14:07:34;;;;;;;2.20;2.00;;;;;;;;;;4974397;28;20416;-55
2022/06/04 14:10:00;;;;;;;2.60;2.40;;;;;;;;;;4974388;28;20472;-55
2022/06/04 14:12:40;;;;;;;2.63;2.50;;;;;;;;;;4974605;28;20456;-55
2022/06/04 14:15:19;;;;;;;2.93;2.63;;;;;;;;;;4974265;28;20427;-55
2022/06/04 14:18:03;;;;;;;2.70;2.30;;;;;;;;;;4974456;28;20433;-55
2022/06/04 14:20:35;;;;;;;2.47;2.30;;;;;;;;;;4966673;28;20812;-55
2022/06/04 14:23:17;;;;;;;2.20;2.10;;;;;;;;;;4971139;28;20428;-55
2022/06/04 14:25:49;;;;;;;3.10;2.80;;;;;;;;;;4974623;28;20432;-55
2022/06/04 14:28:36;;;;;;;2.63;2.40;;;;;;;;;;4974311;28;20452;-55
2022/06/04 14:31:02;;;;;;;2.33;2.20;;;;;;;;;;4974135;28;20447;-55
2022/06/04 14:33:28;;;;;;;2.67;2.47;;;;;;;;;;4974122;28;20504;-55
2022/06/04 14:36:04;;;;;;;2.53;2.33;;;;;;;;;;4979931;28;20479;-55
2022/06/04 14:38:31;;;;;;;2.60;2.50;;;;;;;;;;4956408;28;20423;-55
2022/06/04 14:41:21;;;;;;;2.30;2.10;;;;;;;;;;4973016;28;20520;-54
2022/06/04 14:43:59;;;;;;;2.50;2.40;;;;;;;;;;4973831;28;20492;-55
2022/06/04 14:46:45;;;;;;;2.40;2.27;;;;;;;;;;4973984;28;20916;-56
2022/06/04 14:49:23;;;;;;;8.13;3.53;;;;;;;;;;4973309;28;20496;-55
2022/06/04 14:51:54;;;;;;;2.70;2.23;;;;;;;;;;4965968;28;20417;-55
2022/06/04 14:54:21;;;;;;;2.80;2.60;;;;;;;;;;4969469;28;20452;-55
2022/06/04 14:57:07;;;;;;;4.70;2.80;;;;;;;;;;4973431;28;20614;-55
2022/06/04 14:59:48;;;;;;;2.50;2.30;;;;;;;;;;4973809;28;20785;-55
2022/06/04 15:02:21;;;;;;;3.00;2.30;;;;;;;;;;4973196;28;21039;-55
2022/06/04 15:04:59;;;;;;;2.53;2.40;;;;;;;;;;4973411;28;20437;-55
2022/06/04 15:07:25;;;;;;;2.43;2.33;;;;;;;;;;4972344;28;20412;-55
2022/06/04 15:09:54;;;;;;;2.50;2.30;;;;;;;;;;4972818;28;20782;-54
2022/06/04 15:12:26;;;;;;;2.63;2.20;;;;;;;;;;4973667;28;20177;-55
2022/06/04 15:15:02;;;;;;;2.40;2.20;;;;;;;;;;4960235;28;20418;-55
2022/06/04 15:17:32;;;;;;;3.17;2.97;;;;;;;;;;4954237;29;20503;-54
2022/06/04 15:20:13;;;;;;;2.20;2.10;;;;;;;;;;4961802;28;20425;-55